Time;durP1;ratioP1;P1;durP2;ratioP2;P2;SDS_P1;SDS_P2;PMS_P1;PMS_P2;Temp;Humidity;BMP_temperature;BMP_pressure;BME280_temperature;BME280_humidity;BME280_pressure;Samples;Min_cycle;Max_cycle;Signal;HPM_P1;HPM_P2
2024/03/04 00:00:38;;;;;;;11.35;8.85;;;;;;;10.44;100.00;100646.94;5275511;28;20031;-75
2024/03/04 00:03:10;;;;;;;9.82;8.00;;;;;;;10.47;100.00;100646.66;5278425;28;20417;-75
2024/03/04 00:05:42;;;;;;;10.18;7.35;;;;;;;10.46;100.00;100648.47;5271804;28;20043;-75
2024/03/04 00:08:14;;;;;;;9.07;7.90;;;;;;;10.50;100.00;100653.44;5281273;28;20028;-75
2024/03/04 00:10:46;;;;;;;10.63;8.05;;;;;;;10.48;100.00;100648.31;5279412;28;20035;-74
2024/03/04 00:13:20;;;;;;;7.90;5.73;;;;;;;10.47;100.00;100647.50;5278968;28;20279;-75
2024/03/04 00:15:52;;;;;;;7.75;5.75;;;;;;;10.45;100.00;100654.69;5281422;28;20302;-75
2024/03/04 00:18:24;;;;;;;11.17;5.03;;;;;;;10.45;100.00;100653.81;5279453;28;20044;-75
2024/03/04 00:20:56;;;;;;;6.72;5.28;;;;;;;10.48;100.00;100654.38;5280588;28;20278;-75
2024/03/04 00:23:28;;;;;;;7.72;5.45;;;;;;;10.43;100.00;100655.75;5280872;28;20036;-75
2024/03/04 00:26:00;;;;;;;9.73;5.55;;;;;;;10.40;100.00;100653.41;5281615;28;20047;-74
2024/03/04 00:28:32;;;;;;;9.30;5.50;;;;;;;10.37;100.00;100657.09;5284845;28;20043;-74
2024/03/04 00:31:04;;;;;;;8.27;5.85;;;;;;;10.36;100.00;100660.69;5281817;28;20043;-73
2024/03/04 00:33:36;;;;;;;9.48;6.10;;;;;;;10.33;100.00;100663.56;5284092;28;20032;-75
2024/03/04 00:36:10;;;;;;;9.70;6.07;;;;;;;10.32;100.00;100669.78;5282700;28;20405;-74
2024/03/04 00:38:42;;;;;;;7.82;5.28;;;;;;;10.31;100.00;100667.31;5286066;28;20863;-75
2024/03/04 00:41:21;;;;;;;8.23;5.00;;;;;;;10.45;100.00;100670.38;5285351;28;20032;-75
2024/03/04 00:43:53;;;;;;;7.15;4.57;;;;;;;10.27;100.00;100682.44;5283834;28;20028;-74
2024/03/04 00:46:26;;;;;;;7.32;4.72;;;;;;;10.32;100.00;100676.81;5284908;28;20047;-75
2024/03/04 00:48:58;;;;;;;7.15;4.65;;;;;;;10.22;100.00;100687.19;5285886;28;20028;-75
2024/03/04 00:51:30;;;;;;;7.43;5.07;;;;;;;10.24;100.00;100677.44;5282226;28;20028;-75
2024/03/04 00:54:02;;;;;;;6.97;4.15;;;;;;;10.21;100.00;100689.00;5283470;28;20039;-74
2024/03/04 00:56:34;;;;;;;6.45;4.22;;;;;;;10.21;100.00;100693.41;5285898;28;20051;-75
2024/03/04 00:59:07;;;;;;;10.18;4.00;;;;;;;10.17;100.00;100682.38;5282317;28;20042;-75
2024/03/04 01:01:38;;;;;;;8.68;3.97;;;;;;;10.27;100.00;100694.72;5282987;28;20028;-74
2024/03/04 01:04:10;;;;;;;7.47;3.97;;;;;;;10.24;100.00;100701.00;5280626;28;20027;-74
2024/03/04 01:06:42;;;;;;;8.75;3.70;;;;;;;10.24;100.00;100703.63;5286023;28;20028;-75
2024/03/04 01:09:14;;;;;;;7.10;4.00;;;;;;;10.26;100.00;100714.81;5286220;28;20467;-74
2024/03/04 01:11:46;;;;;;;6.15;3.55;;;;;;;10.18;100.00;100702.34;5283700;28;20028;-75
2024/03/04 01:14:18;;;;;;;7.75;4.32;;;;;;;10.26;100.00;100721.84;5282666;28;20507;-75
2024/03/04 01:16:52;;;;;;;5.78;3.53;;;;;;;10.24;100.00;100735.88;5283650;28;20028;-75
2024/03/04 01:19:24;;;;;;;7.28;4.30;;;;;;;10.28;100.00;100740.88;5283987;28;20043;-75
2024/03/04 01:21:56;;;;;;;8.60;4.50;;;;;;;10.30;100.00;100738.94;5265178;28;20040;-74
2024/03/04 01:24:28;;;;;;;7.28;4.40;;;;;;;10.31;100.00;100740.63;5286066;28;20035;-74
2024/03/04 01:27:00;;;;;;;6.93;4.05;;;;;;;10.32;100.00;100748.34;5284429;28;20651;-74
2024/03/04 01:29:32;;;;;;;7.00;4.28;;;;;;;10.28;100.00;100752.19;5282615;28;20040;-75
2024/03/04 01:32:05;;;;;;;6.13;3.95;;;;;;;10.24;100.00;100748.13;5282223;28;20205;-75
2024/03/04 01:34:39;;;;;;;5.03;3.13;;;;;;;10.37;100.00;100774.94;5281719;28;20385;-75
2024/03/04 01:37:10;;;;;;;6.60;3.22;;;;;;;10.32;100.00;100769.28;5284065;28;20036;-74
2024/03/04 01:39:42;;;;;;;6.78;3.75;;;;;;;10.31;100.00;100769.44;5281658;28;20027;-74
2024/03/04 01:42:15;;;;;;;3.97;2.35;;;;;;;10.30;100.00;100768.56;5283761;28;20023;-75
2024/03/04 01:44:47;;;;;;;4.75;2.67;;;;;;;10.31;100.00;100766.81;5285051;28;20036;-75
2024/03/04 01:47:20;;;;;;;7.75;2.70;;;;;;;10.31;100.00;100770.25;5282540;28;20024;-75
2024/03/04 01:49:52;;;;;;;;;;;;;;;11.00;100.00;100768.72;5283100;28;20043;-75
2024/03/04 01:52:24;;;;;;;4.05;2.28;;;;;;;10.41;100.00;100770.28;5283818;28;19920;-75
2024/03/04 01:54:57;;;;;;;5.15;2.80;;;;;;;10.39;100.00;100770.44;5282254;28;20366;-75
2024/03/04 01:57:28;;;;;;;4.83;2.73;;;;;;;10.40;100.00;100771.25;5282213;28;20044;-75
2024/03/04 02:00:01;;;;;;;5.65;2.72;;;;;;;10.37;100.00;100777.56;5283277;28;20399;-75
2024/03/04 02:02:33;;;;;;;8.57;3.67;;;;;;;10.36;100.00;100780.34;5281507;28;20050;-75
2024/03/04 02:05:09;;;;;;;8.23;3.55;;;;;;;10.35;100.00;100781.31;5280814;28;20036;-75
2024/03/04 02:07:41;;;;;;;4.25;2.75;;;;;;;10.23;100.00;100781.34;5281154;28;20492;-75
2024/03/04 02:10:15;;;;;;;6.00;3.35;;;;;;;10.30;100.00;100800.00;5283039;28;21035;-75
2024/03/04 02:12:47;;;;;;;6.45;3.70;;;;;;;10.22;100.00;100794.53;5284106;28;20032;-75
2024/03/04 02:15:19;;;;;;;7.85;3.63;;;;;;;10.25;100.00;100791.72;5281861;28;20035;-74
2024/03/04 02:17:51;;;;;;;9.15;3.30;;;;;;;10.26;100.00;100792.53;5284223;28;20551;-75
2024/03/04 02:20:24;;;;;;;6.75;3.22;;;;;;;10.26;100.00;100795.97;5283374;28;20027;-74
2024/03/04 02:22:56;;;;;;;;;;;;;;;10.89;100.00;100799.31;5265781;28;20503;-74
2024/03/04 02:25:35;;;;;;;5.72;3.10;;;;;;;10.43;100.00;100807.66;5281077;28;19916;-75
2024/03/04 02:28:08;;;;;;;7.68;3.30;;;;;;;10.25;100.00;100799.56;5282059;28;20032;-74
2024/03/04 02:30:39;;;;;;;5.53;3.45;;;;;;;10.27;100.00;100809.94;5284246;28;20034;-75
2024/03/04 02:33:12;;;;;;;7.70;3.33;;;;;;;10.24;100.00;100805.72;5284761;28;20035;-75
2024/03/04 02:35:44;;;;;;;6.75;3.40;;;;;;;10.27;100.00;100808.13;5282922;28;20020;-75
2024/03/04 02:38:17;;;;;;;4.13;3.13;;;;;;;10.17;100.00;100796.72;5279196;28;20046;-75
2024/03/04 02:40:50;;;;;;;5.85;2.92;;;;;;;10.21;100.00;100816.47;5282510;28;20028;-74
2024/03/04 02:43:22;;;;;;;4.28;2.85;;;;;;;10.20;100.00;100809.56;5283988;28;20024;-75
2024/03/04 02:45:54;;;;;;;5.43;2.47;;;;;;;10.17;100.00;100812.44;5280358;28;20036;-75
2024/03/04 02:48:25;;;;;;;3.70;2.25;;;;;;;10.18;100.00;100822.78;5283714;28;20038;-75
2024/03/04 02:50:57;;;;;;;4.32;2.70;;;;;;;10.16;100.00;100823.88;5281290;28;20481;-74
2024/03/04 02:53:29;;;;;;;2.45;1.63;;;;;;;10.16;100.00;100829.13;5282979;28;20407;-75
2024/03/04 02:56:01;;;;;;;4.47;1.70;;;;;;;10.15;100.00;100824.81;5282570;28;20290;-74
2024/03/04 02:58:33;;;;;;;5.45;1.88;;;;;;;10.14;100.00;100833.63;5275046;28;20047;-75
2024/03/04 03:01:05;;;;;;;2.75;2.00;;;;;;;10.16;100.00;100840.41;5267542;28;20490;-75
2024/03/04 03:03:37;;;;;;;3.10;1.90;;;;;;;10.16;100.00;100827.31;5282619;28;20441;-75
2024/03/04 03:06:09;;;;;;;4.03;2.10;;;;;;;10.14;100.00;100833.63;5270826;28;20031;-74
2024/03/04 03:08:41;;;;;;;4.45;2.40;;;;;;;10.16;100.00;100839.59;5279509;28;20043;-75
2024/03/04 03:11:13;;;;;;;6.00;3.10;;;;;;;10.09;100.00;100834.03;5275586;28;20074;-75
2024/03/04 03:13:45;;;;;;;5.18;3.53;;;;;;;10.21;100.00;100840.84;5282213;28;20098;-75
2024/03/04 03:16:21;;;;;;;5.35;3.85;;;;;;;10.30;100.00;100844.50;5282359;28;20054;-74
2024/03/04 03:18:56;;;;;;;7.43;5.22;;;;;;;10.19;100.00;100855.88;5281382;28;20039;-75
2024/03/04 03:21:28;;;;;;;8.95;4.72;;;;;;;10.21;100.00;100853.13;5283140;28;20028;-75
2024/03/04 03:24:00;;;;;;;7.18;4.95;;;;;;;10.16;100.00;100848.28;5280022;28;20078;-74
2024/03/04 03:26:32;;;;;;;7.80;4.30;;;;;;;10.14;100.00;100849.34;5282959;28;20031;-74
2024/03/04 03:29:04;;;;;;;10.43;5.25;;;;;;;10.13;100.00;100850.31;5282585;28;20900;-75
2024/03/04 03:31:37;;;;;;;7.93;4.30;;;;;;;10.13;100.00;100843.28;5283172;28;20035;-75
2024/03/04 03:34:09;;;;;;;6.22;4.18;;;;;;;10.13;100.00;100852.94;5282657;28;20040;-75
2024/03/04 03:36:41;;;;;;;8.07;4.55;;;;;;;10.12;100.00;100844.25;5271979;28;20031;-74
2024/03/04 03:39:14;;;;;;;8.93;3.80;;;;;;;10.17;100.00;100849.09;5281701;28;20425;-75
2024/03/04 03:41:46;;;;;;;6.43;3.15;;;;;;;10.18;100.00;100848.13;5261471;28;20043;-75
2024/03/04 03:44:18;;;;;;;6.68;3.65;;;;;;;10.12;100.00;100852.09;5283422;28;20032;-75
2024/03/04 03:46:50;;;;;;;6.90;3.60;;;;;;;10.11;100.00;100857.44;5285340;28;20059;-75
2024/03/04 03:49:22;;;;;;;5.93;3.33;;;;;;;10.04;100.00;100856.28;5282188;28;20032;-75
2024/03/04 03:51:54;;;;;;;3.88;3.30;;;;;;;10.01;100.00;100856.56;5281603;28;20035;-75
2024/03/04 03:54:26;;;;;;;5.47;3.20;;;;;;;10.02;100.00;100858.22;5283822;28;20032;-75
2024/03/04 03:56:58;;;;;;;6.43;3.40;;;;;;;10.03;100.00;100862.47;5280442;28;20295;-74
2024/03/04 03:59:30;;;;;;;10.15;4.72;;;;;;;10.02;100.00;100866.88;5281055;28;20043;-75
2024/03/04 04:02:02;;;;;;;8.27;3.25;;;;;;;9.84;100.00;100847.47;5283161;28;20028;-75
2024/03/04 04:04:33;;;;;;;5.95;3.30;;;;;;;10.03;100.00;100870.34;5287450;28;20028;-74
2024/03/04 04:07:05;;;;;;;5.18;3.20;;;;;;;10.04;100.00;100875.47;5280630;28;20043;-75
2024/03/04 04:09:37;;;;;;;5.57;3.28;;;;;;;9.94;100.00;100867.53;5283601;28;20031;-75
2024/03/04 04:12:09;;;;;;;4.05;2.28;;;;;;;10.00;100.00;100887.16;5286390;28;20401;-74
2024/03/04 04:14:41;;;;;;;3.05;2.08;;;;;;;9.99;100.00;100886.28;5285038;28;20039;-75
2024/03/04 04:17:13;;;;;;;5.82;2.42;;;;;;;10.04;100.00;100890.31;5279886;28;20283;-75
2024/03/04 04:19:45;;;;;;;4.13;1.95;;;;;;;9.99;100.00;100886.28;5286046;28;20046;-75
2024/03/04 04:22:17;;;;;;;5.37;1.90;;;;;;;10.01;100.00;100886.19;5286872;28;20874;-75
2024/03/04 04:24:49;;;;;;;2.28;1.42;;;;;;;9.96;100.00;100898.78;5282594;28;20028;-75
2024/03/04 04:27:22;;;;;;;2.83;1.40;;;;;;;9.89;100.00;100908.94;5286996;28;20039;-75
2024/03/04 04:29:54;;;;;;;;;;;;;;;10.54;100.00;100909.75;5285355;28;20768;-77
2024/03/04 04:32:27;;;;;;;3.10;1.25;;;;;;;9.87;100.00;100907.41;5287585;28;20604;-76
2024/03/04 04:34:59;;;;;;;3.53;1.20;;;;;;;9.87;100.00;100916.06;5285764;28;20039;-77
2024/03/04 04:37:31;;;;;;;3.17;1.20;;;;;;;9.75;100.00;100906.59;5284168;28;20036;-75
2024/03/04 04:40:03;;;;;;;3.03;1.20;;;;;;;9.74;100.00;100921.47;5287813;28;20038;-76
2024/03/04 04:42:36;;;;;;;2.03;0.90;;;;;;;9.81;100.00;100927.06;5288015;28;20047;-76
2024/03/04 04:45:08;;;;;;;3.97;1.23;;;;;;;9.79;100.00;100931.56;5287255;28;20035;-76
2024/03/04 04:47:40;;;;;;;1.95;1.13;;;;;;;9.75;100.00;100933.59;5267185;28;20040;-77
2024/03/04 04:50:12;;;;;;;3.50;0.90;;;;;;;9.80;100.00;100927.16;5286404;28;20032;-77
2024/03/04 04:52:43;;;;;;;4.35;1.33;;;;;;;9.79;100.00;100933.34;5282702;28;20036;-77
2024/03/04 04:55:15;;;;;;;2.80;1.08;;;;;;;9.82;100.00;100948.81;5284463;28;20028;-76
2024/03/04 04:57:47;;;;;;;2.78;1.30;;;;;;;9.77;100.00;100933.47;5286926;28;20511;-76
2024/03/04 05:00:19;;;;;;;2.55;1.48;;;;;;;9.80;100.00;100935.84;5281766;28;20385;-76
2024/03/04 05:02:51;;;;;;;2.67;1.33;;;;;;;9.81;100.00;100944.50;5285691;28;20038;-76
2024/03/04 05:05:23;;;;;;;3.45;1.25;;;;;;;9.76;100.00;100939.66;5282921;28;20024;-77
2024/03/04 05:07:55;;;;;;;1.88;1.00;;;;;;;9.82;100.00;100941.78;5284683;28;20040;-75
2024/03/04 05:10:27;;;;;;;3.63;1.55;;;;;;;9.83;100.00;100946.06;5284940;28;20499;-76
2024/03/04 05:12:59;;;;;;;2.45;1.30;;;;;;;9.84;100.00;100946.88;5284671;28;21636;-75
2024/03/04 05:15:30;;;;;;;4.03;1.60;;;;;;;9.83;100.00;100942.63;5283975;28;20066;-77
2024/03/04 05:18:03;;;;;;;2.95;1.20;;;;;;;9.78;100.00;100943.00;5285059;28;20047;-77
2024/03/04 05:20:35;;;;;;;4.57;1.50;;;;;;;9.72;100.00;100933.00;5286064;28;20043;-77
2024/03/04 05:23:07;;;;;;;2.67;1.42;;;;;;;9.87;100.00;100950.09;5284911;28;20638;-76
2024/03/04 05:25:39;;;;;;;3.92;1.52;;;;;;;9.90;100.00;100957.69;5282387;28;20032;-75
2024/03/04 05:28:11;;;;;;;2.92;1.48;;;;;;;9.89;100.00;100955.22;5284905;28;20039;-76
2024/03/04 05:30:43;;;;;;;3.63;1.30;;;;;;;9.95;100.00;100950.31;5276180;28;20038;-76
2024/03/04 05:33:15;;;;;;;8.18;1.73;;;;;;;9.97;100.00;100966.72;5281914;28;20158;-76
2024/03/04 05:35:47;;;;;;;4.82;1.42;;;;;;;9.93;100.00;100967.09;5281883;28;20063;-76
2024/03/04 05:38:19;;;;;;;4.05;1.63;;;;;;;9.93;100.00;100962.69;5282146;28;20024;-76
2024/03/04 05:40:51;;;;;;;3.40;1.52;;;;;;;9.89;100.00;100968.31;5283619;28;20028;-76
2024/03/04 05:43:22;;;;;;;4.25;1.45;;;;;;;9.87;100.00;100976.25;5275874;28;20531;-76
2024/03/04 05:45:54;;;;;;;3.30;1.55;;;;;;;9.84;100.00;100984.34;5282212;28;20024;-76
2024/03/04 05:48:26;;;;;;;4.65;1.27;;;;;;;9.82;100.00;100986.28;5283606;28;20287;-76
2024/03/04 05:50:58;;;;;;;4.32;1.60;;;;;;;9.86;100.00;100985.06;5281580;28;20039;-76
2024/03/04 05:53:30;;;;;;;5.30;1.48;;;;;;;9.83;100.00;100990.53;5283976;28;20047;-76
2024/03/04 05:56:05;;;;;;;4.05;1.60;;;;;;;9.94;100.00;100993.13;5282024;28;20042;-77
2024/03/04 05:58:38;;;;;;;3.30;1.40;;;;;;;9.84;100.00;100994.00;5283509;28;20091;-76
2024/03/04 06:01:13;;;;;;;4.70;2.00;;;;;;;9.97;100.00;101003.38;5285866;28;20066;-76
2024/03/04 06:03:45;;;;;;;4.40;2.08;;;;;;;9.85;100.00;101004.34;5281832;28;20028;-76
2024/03/04 06:06:17;;;;;;;4.65;1.92;;;;;;;9.72;100.00;100991.38;5285373;28;20031;-76
2024/03/04 06:08:49;;;;;;;4.65;2.15;;;;;;;9.81;100.00;101015.16;5283185;28;20067;-76
2024/03/04 06:11:21;;;;;;;3.08;2.22;;;;;;;9.80;100.00;101013.50;5282248;28;20492;-76
2024/03/04 06:13:54;;;;;;;4.28;2.20;;;;;;;9.78;100.00;101011.03;5285477;28;20054;-76
2024/03/04 06:16:26;;;;;;;3.35;2.42;;;;;;;9.74;100.00;101013.03;5286519;28;20032;-76
2024/03/04 06:18:57;;;;;;;4.20;2.70;;;;;;;9.76;100.00;101012.91;5283884;28;20031;-76
2024/03/04 06:21:29;;;;;;;3.65;2.13;;;;;;;9.67;100.00;101017.09;5286044;28;20051;-76
2024/03/04 06:24:05;;;;;;;3.95;2.33;;;;;;;9.80;100.00;101026.59;5285770;28;20038;-76
2024/03/04 06:26:39;;;;;;;4.03;2.30;;;;;;;9.69;100.00;101016.97;5286631;28;20028;-75
2024/03/04 06:29:11;;;;;;;5.47;2.58;;;;;;;9.65;100.00;101026.81;5285995;28;20032;-75
2024/03/04 06:31:44;;;;;;;5.28;2.85;;;;;;;9.64;100.00;101030.41;5283796;28;20047;-75
2024/03/04 06:34:16;;;;;;;5.13;2.42;;;;;;;9.65;100.00;101029.44;5287086;28;20024;-76
2024/03/04 06:36:49;;;;;;;8.07;3.30;;;;;;;9.62;100.00;101027.09;5287157;28;20031;-76
2024/03/04 06:39:21;;;;;;;6.40;3.63;;;;;;;9.66;100.00;101032.88;5284252;28;20039;-75
2024/03/04 06:41:52;;;;;;;6.78;3.88;;;;;;;9.60;100.00;101033.38;5280534;28;20028;-75
2024/03/04 06:44:24;;;;;;;5.00;3.78;;;;;;;9.59;100.00;101037.78;5283952;28;20469;-76
2024/03/04 06:46:56;;;;;;;7.40;3.90;;;;;;;9.62;100.00;101036.69;5285044;28;20027;-75
2024/03/04 06:49:28;;;;;;;6.47;3.75;;;;;;;9.63;100.00;101027.91;5281390;28;20036;-75
2024/03/04 06:52:00;;;;;;;7.88;4.18;;;;;;;9.65;100.00;101031.22;5265596;28;20051;-75
2024/03/04 06:54:32;;;;;;;6.03;3.45;;;;;;;9.69;100.00;101028.25;5285029;28;20036;-75
2024/03/04 06:57:04;;;;;;;5.13;3.83;;;;;;;9.70;100.00;101016.84;5282803;28;20824;-76
2024/03/04 06:59:36;;;;;;;6.50;3.80;;;;;;;9.74;100.00;101022.69;5282645;28;20804;-75
2024/03/04 07:02:08;;;;;;;5.32;3.63;;;;;;;9.75;100.00;101016.50;5286006;28;20034;-75
2024/03/04 07:04:40;;;;;;;5.40;3.53;;;;;;;9.82;100.00;101019.47;5284808;28;20036;-75
2024/03/04 07:07:12;;;;;;;4.80;3.17;;;;;;;9.79;100.00;101019.69;5287014;28;20032;-75
2024/03/04 07:09:44;;;;;;;7.22;3.80;;;;;;;9.84;100.00;101020.16;5284765;28;20484;-76
2024/03/04 07:12:15;;;;;;;5.90;3.50;;;;;;;9.91;100.00;101019.56;5284212;28;20437;-76
2024/03/04 07:14:47;;;;;;;6.78;3.83;;;;;;;9.95;100.00;101028.00;5282951;28;20035;-75
2024/03/04 07:17:19;;;;;;;5.82;3.72;;;;;;;9.98;100.00;101022.53;5284139;28;20279;-75
2024/03/04 07:19:51;;;;;;;4.72;3.22;;;;;;;9.98;100.00;101027.75;5284348;28;20077;-76
2024/03/04 07:22:23;;;;;;;6.40;3.22;;;;;;;10.02;100.00;101031.78;5286984;28;20038;-75
2024/03/04 07:24:55;;;;;;;4.80;3.30;;;;;;;10.06;100.00;101037.63;5275447;28;20036;-75
2024/03/04 07:27:27;;;;;;;4.63;2.97;;;;;;;10.07;100.00;101041.88;5285593;28;20032;-75
2024/03/04 07:29:59;;;;;;;4.75;2.88;;;;;;;10.06;100.00;101045.47;5285175;28;20032;-75
2024/03/04 07:32:31;;;;;;;5.22;2.65;;;;;;;10.08;100.00;101046.19;5283587;28;20042;-75
2024/03/04 07:35:03;;;;;;;5.20;2.80;;;;;;;10.07;100.00;101047.94;5285869;28;20027;-75
2024/03/04 07:37:35;;;;;;;9.90;2.88;;;;;;;10.16;100.00;101047.25;5286534;28;20032;-75
2024/03/04 07:40:10;;;;;;;6.15;2.53;;;;;;;10.17;100.00;101045.44;5287528;28;20254;-75
2024/03/04 07:42:41;;;;;;;3.63;2.03;;;;;;;10.13;100.00;101047.47;5289125;28;20764;-75
2024/03/04 07:45:13;;;;;;;4.70;2.20;;;;;;;10.12;100.00;101051.06;5285820;28;20024;-75
2024/03/04 07:47:45;;;;;;;5.03;2.00;;;;;;;10.18;100.00;101057.56;5290530;28;20032;-75
2024/03/04 07:50:17;;;;;;;3.65;2.00;;;;;;;10.20;100.00;101050.44;5289282;28;20729;-75
2024/03/04 07:52:49;;;;;;;5.40;2.10;;;;;;;10.23;100.00;101048.41;5285545;28;20396;-75
2024/03/04 07:55:21;;;;;;;4.20;2.38;;;;;;;10.32;100.00;101052.09;5289086;28;20086;-76
2024/03/04 07:57:53;;;;;;;4.38;2.30;;;;;;;10.31;100.00;101058.31;5287656;28;20515;-76
2024/03/04 08:00:25;;;;;;;4.72;1.90;;;;;;;10.34;100.00;101059.81;5285700;28;20473;-75
2024/03/04 08:02:57;;;;;;;4.80;2.10;;;;;;;10.33;100.00;101059.00;5287898;28;20046;-75
2024/03/04 08:05:30;;;;;;;6.85;2.30;;;;;;;10.36;100.00;101071.03;5290783;28;20031;-75
2024/03/04 08:08:02;;;;;;;3.75;2.53;;;;;;;10.36;100.00;101048.28;5287165;28;20028;-75
2024/03/04 08:10:34;;;;;;;3.50;2.05;;;;;;;10.45;100.00;101067.66;5289857;28;20044;-75
2024/03/04 08:13:06;;;;;;;4.78;2.10;;;;;;;10.44;100.00;101077.31;5290711;28;20120;-75
2024/03/04 08:15:39;;;;;;;3.65;2.35;;;;;;;10.42;100.00;101079.22;5286570;28;20028;-75
2024/03/04 08:18:12;;;;;;;4.70;2.00;;;;;;;10.38;100.00;101067.34;5289499;28;20032;-75
2024/03/04 08:20:44;;;;;;;3.77;2.30;;;;;;;10.47;100.00;101086.72;5287103;28;20401;-75
2024/03/04 08:23:15;;;;;;;5.85;2.55;;;;;;;10.45;100.00;101088.59;5287091;28;20032;-75
2024/03/04 08:25:47;;;;;;;4.30;2.92;;;;;;;10.36;100.00;101094.59;5289943;28;20043;-75
2024/03/04 08:28:19;;;;;;;4.72;2.58;;;;;;;10.27;100.00;101084.88;5286420;28;20027;-75
2024/03/04 08:30:51;;;;;;;5.63;2.58;;;;;;;10.33;100.00;101100.91;5289144;28;20549;-75
2024/03/04 08:33:24;;;;;;;5.32;2.60;;;;;;;10.32;100.00;101101.88;5286605;28;20035;-75
2024/03/04 08:35:56;;;;;;;4.65;2.42;;;;;;;10.37;100.00;101102.31;5289429;28;20431;-75
2024/03/04 08:38:28;;;;;;;3.35;1.90;;;;;;;10.34;100.00;101101.72;5287050;28;20032;-75
2024/03/04 08:41:02;;;;;;;4.50;2.25;;;;;;;10.33;100.00;101105.31;5288216;28;20115;-76
2024/03/04 08:43:34;;;;;;;3.28;2.17;;;;;;;10.38;100.00;101109.25;5285168;28;20032;-75
2024/03/04 08:46:06;;;;;;;4.03;1.80;;;;;;;10.43;100.00;101109.69;5288464;28;20031;-76
2024/03/04 08:48:38;;;;;;;3.60;2.05;;;;;;;10.47;100.00;101107.66;5285445;28;20465;-75
2024/03/04 08:51:10;;;;;;;4.93;2.83;;;;;;;10.47;100.00;101107.66;5285882;28;20043;-76
2024/03/04 08:53:42;;;;;;;4.25;2.20;;;;;;;10.56;100.00;101101.66;5289773;28;20047;-75
2024/03/04 08:56:14;;;;;;;5.63;2.33;;;;;;;10.58;100.00;101109.44;5286969;28;20498;-76
2024/03/04 08:58:46;;;;;;;6.50;1.80;;;;;;;10.61;100.00;101099.53;5286042;28;20066;-76
2024/03/04 09:01:20;;;;;;;5.50;2.03;;;;;;;10.72;100.00;101101.28;5286028;28;20047;-75
2024/03/04 09:03:52;;;;;;;3.97;2.00;;;;;;;10.70;100.00;101087.47;5285909;28;20067;-75
2024/03/04 09:06:26;;;;;;;5.22;2.05;;;;;;;10.91;100.00;101093.59;5288233;28;20272;-76
2024/03/04 09:08:58;;;;;;;3.72;1.92;;;;;;;10.95;100.00;101105.47;5287288;28;20028;-75
2024/03/04 09:11:30;;;;;;;2.90;1.88;;;;;;;10.91;100.00;101085.72;5285008;28;20105;-76
2024/03/04 09:14:02;;;;;;;4.97;1.75;;;;;;;11.07;100.00;101098.38;5282714;28;20032;-76
2024/03/04 09:16:34;;;;;;;2.30;1.52;;;;;;;11.15;100.00;101103.81;5286732;28;20032;-75
2024/03/04 09:19:06;;;;;;;4.75;2.13;;;;;;;11.21;100.00;101105.09;5283491;28;20036;-76
2024/03/04 09:21:38;;;;;;;4.23;1.70;;;;;;;11.34;99.69;101097.03;5285264;28;20035;-76
2024/03/04 09:24:11;;;;;;;2.47;1.35;;;;;;;11.38;92.59;101108.94;5288208;28;20039;-75
2024/03/04 09:26:46;;;;;;;3.03;1.40;;;;;;;11.39;98.37;101087.81;5288212;28;20035;-76
2024/03/04 09:29:17;;;;;;;2.42;1.30;;;;;;;11.45;95.99;101096.97;5286519;28;20442;-75
2024/03/04 09:31:49;;;;;;;2.60;1.40;;;;;;;11.57;88.58;101097.72;5285669;28;20024;-76
2024/03/04 09:34:21;;;;;;;4.70;1.30;;;;;;;11.58;86.32;101102.84;5287710;28;20065;-75
2024/03/04 09:36:53;;;;;;;2.45;1.30;;;;;;;11.60;87.61;101095.69;5287496;28;20024;-75
2024/03/04 09:39:25;;;;;;;2.83;1.00;;;;;;;11.61;77.89;101091.25;5285610;28;20538;-76
2024/03/04 09:41:58;;;;;;;3.88;1.42;;;;;;;11.71;79.70;101100.00;5286454;28;20028;-76
2024/03/04 09:44:30;;;;;;;;;;;;;;;12.45;85.24;101099.72;5286147;28;20039;-75
2024/03/04 09:47:02;;;;;;;2.10;0.90;;;;;;;11.82;73.17;101110.44;5287334;28;19916;-75
2024/03/04 09:49:35;;;;;;;2.70;1.25;;;;;;;11.83;75.36;101108.63;5286182;28;20036;-76
2024/03/04 09:52:08;;;;;;;2.15;0.85;;;;;;;11.86;73.58;101109.22;5285927;28;20036;-75
2024/03/04 09:54:41;;;;;;;2.33;1.08;;;;;;;11.85;73.57;101107.53;5287164;28;20035;-75
2024/03/04 09:57:13;;;;;;;2.22;0.90;;;;;;;11.92;75.55;101110.47;5285335;28;20643;-75
2024/03/04 09:59:47;;;;;;;3.63;1.30;;;;;;;11.96;76.25;101113.69;5287122;28;20040;-76
2024/03/04 10:02:20;;;;;;;3.63;1.20;;;;;;;12.01;74.05;101101.81;5288619;28;20597;-75
2024/03/04 10:04:52;;;;;;;3.05;1.50;;;;;;;12.06;69.74;101107.50;5285632;28;20035;-75
2024/03/04 10:07:24;;;;;;;2.97;1.23;;;;;;;12.05;71.43;101103.22;5286717;28;20085;-75
2024/03/04 10:09:57;;;;;;;3.35;1.38;;;;;;;12.06;72.48;101109.31;5285395;28;20028;-75
2024/03/04 10:12:29;;;;;;;5.25;1.52;;;;;;;12.15;72.21;101114.56;5282305;28;20039;-75
2024/03/04 10:15:05;;;;;;;2.33;1.10;;;;;;;12.23;74.72;101111.28;5285925;28;20024;-75
2024/03/04 10:17:38;;;;;;;2.25;1.33;;;;;;;12.16;72.13;101125.94;5281433;28;20043;-76
2024/03/04 10:20:15;;;;;;;2.55;1.08;;;;;;;12.28;71.12;101126.66;5288359;28;20039;-75
2024/03/04 10:22:48;;;;;;;2.95;1.60;;;;;;;12.24;71.38;101131.34;5269192;28;20375;-76
2024/03/04 10:25:20;;;;;;;3.50;1.75;;;;;;;12.24;70.38;101133.13;5285748;28;20397;-76
2024/03/04 10:27:51;;;;;;;6.47;2.03;;;;;;;12.29;71.77;101138.81;5286587;28;20036;-76
2024/03/04 10:30:27;;;;;;;3.95;2.33;;;;;;;12.36;74.34;101142.56;5286436;28;20300;-75
2024/03/04 10:33:03;;;;;;;3.05;1.75;;;;;;;12.52;73.92;101131.53;5286479;28;20024;-75
2024/03/04 10:35:35;;;;;;;4.80;2.53;;;;;;;12.57;73.74;101137.22;5283543;28;20035;-76
2024/03/04 10:38:07;;;;;;;4.45;2.25;;;;;;;12.66;73.33;101139.88;5284983;28;20378;-75
2024/03/04 10:40:41;;;;;;;5.27;2.30;;;;;;;12.91;71.99;101140.28;5285232;28;20032;-75
2024/03/04 10:43:15;;;;;;;2.58;2.00;;;;;;;12.79;67.39;101125.63;5284992;28;20027;-76
2024/03/04 10:45:47;;;;;;;3.63;2.10;;;;;;;12.68;68.54;101138.88;5277359;28;20378;-75
2024/03/04 10:48:20;;;;;;;3.25;2.00;;;;;;;12.75;68.35;101143.47;5284742;28;20032;-76
2024/03/04 10:50:54;;;;;;;4.57;2.30;;;;;;;12.76;69.34;101142.47;5283700;28;20032;-76
2024/03/04 10:53:26;;;;;;;4.63;2.50;;;;;;;12.77;69.15;101130.19;5285244;28;20035;-75
2024/03/04 10:56:04;;;;;;;3.47;2.22;;;;;;;13.00;67.75;101136.00;5285905;28;20032;-76
2024/03/04 10:58:42;;;;;;;3.60;2.10;;;;;;;12.98;65.20;101130.06;5285943;28;20039;-75
2024/03/04 11:01:20;;;;;;;5.70;2.50;;;;;;;12.95;69.31;101128.50;5282392;28;20020;-76
2024/03/04 11:03:57;;;;;;;3.45;2.25;;;;;;;13.01;67.27;101127.97;5283469;28;20032;-76
2024/03/04 11:06:31;;;;;;;4.00;2.35;;;;;;;13.02;66.02;101132.25;5284376;28;20028;-76
2024/03/04 11:09:08;;;;;;;4.72;2.50;;;;;;;12.97;67.33;101110.00;5285258;28;20020;-76
2024/03/04 11:11:47;;;;;;;3.53;2.30;;;;;;;13.08;67.08;101123.00;5285616;28;20028;-76
2024/03/04 11:14:27;;;;;;;3.80;2.78;;;;;;;13.10;65.59;101126.31;5286756;28;20052;-76
2024/03/04 11:17:09;;;;;;;4.32;2.75;;;;;;;13.15;63.61;101124.94;5281700;28;20396;-76
2024/03/04 11:19:55;;;;;;;4.13;2.75;;;;;;;13.44;65.42;101133.78;5286857;28;20044;-76
2024/03/04 11:22:27;;;;;;;4.10;2.65;;;;;;;13.25;63.01;101132.00;5284613;28;20027;-76
2024/03/04 11:25:00;;;;;;;5.43;2.78;;;;;;;13.33;62.02;101127.72;5283959;28;20036;-76
2024/03/04 11:27:33;;;;;;;;;;;;;;;14.08;62.65;101122.47;5285597;28;20051;-76
2024/03/04 11:30:06;;;;;;;5.00;2.38;;;;;;;13.51;61.19;101126.97;5284183;28;19912;-76
2024/03/04 11:32:38;;;;;;;4.70;2.92;;;;;;;13.54;60.88;101126.69;5283978;28;20048;-76
2024/03/04 11:35:25;;;;;;;4.72;2.90;;;;;;;13.89;61.52;101123.38;5284881;28;20215;-77
2024/03/04 11:38:06;;;;;;;3.95;3.00;;;;;;;13.92;60.65;101115.19;5284437;28;20473;-76
2024/03/04 11:40:38;;;;;;;5.85;3.70;;;;;;;13.96;63.11;101121.00;5284850;28;20043;-76
2024/03/04 11:43:43;;;;;;;4.57;2.88;;;;;;;14.23;62.11;101117.53;5283506;28;20036;-76
2024/03/04 11:46:18;;;;;;;5.45;3.03;;;;;;;14.12;60.66;101116.75;5286102;28;20322;-77